createdAt,value
2015-11-05T10:01:05.300Z,741.36
2015-11-05T10:01:18.409Z,741.39
2015-11-05T10:01:31.643Z,741.41
2015-11-05T10:01:44.911Z,741.39
2015-11-05T10:01:58.161Z,741.33
2015-11-05T10:02:11.380Z,741.41
2015-11-05T10:02:24.645Z,741.36
2015-11-05T10:02:38.055Z,741.35
2015-11-05T10:02:51.445Z,741.37
2015-11-05T10:03:04.648Z,741.38
2015-11-05T10:03:17.883Z,741.37
2015-11-05T10:03:31.086Z,741.39
2015-11-05T10:03:44.308Z,741.38
2015-11-05T10:03:57.370Z,741.4
2015-11-05T10:04:10.620Z,741.38
2015-11-05T10:04:23.870Z,741.37
2015-11-05T10:04:37.092Z,741.37
2015-11-05T10:04:50.295Z,741.41
2015-11-05T10:05:03.514Z,741.38
2015-11-05T10:05:16.748Z,741.38
2015-11-05T10:05:29.795Z,741.4
2015-11-05T10:05:43.000Z,741.39
2015-11-05T10:05:56.219Z,741.4
2015-11-05T10:06:09.438Z,741.41
2015-11-05T10:06:22.656Z,741.42
2015-11-05T10:06:35.891Z,741.39
2015-11-05T10:06:49.128Z,741.39
2015-11-05T10:07:02.331Z,741.4
2015-11-05T10:07:15.550Z,741.37
2015-11-05T10:07:28.753Z,741.36
2015-11-05T10:07:41.974Z,741.32
2015-11-05T10:07:55.177Z,741.34
2015-11-05T10:08:08.396Z,741.35
2015-11-05T10:08:21.630Z,741.33
2015-11-05T10:08:34.724Z,741.36
2015-11-05T10:08:47.978Z,741.33
2015-11-05T10:09:01.244Z,741.32
2015-11-05T10:09:14.494Z,741.39
2015-11-05T10:09:27.697Z,741.32
2015-11-05T10:09:40.902Z,741.35
2015-11-05T10:09:54.121Z,741.33
2015-11-05T10:10:07.339Z,741.38
2015-11-05T10:10:20.542Z,741.33
2015-11-05T10:10:33.761Z,741.35
2015-11-05T10:10:46.983Z,741.38
2015-11-05T10:11:00.233Z,741.34
2015-11-05T10:11:13.483Z,741.37
2015-11-05T10:11:26.577Z,741.38
2015-11-05T10:11:39.842Z,742.03
2015-11-05T10:11:53.079Z,741.48
2015-11-05T10:12:06.282Z,741.37
2015-11-05T10:12:19.485Z,741.28
2015-11-05T10:12:32.688Z,741.3
2015-11-05T10:12:45.910Z,741.28
2015-11-05T10:12:59.113Z,741.36
2015-11-05T10:13:12.347Z,741.36
2015-11-05T10:13:25.566Z,741.31
2015-11-05T10:13:38.800Z,741.38
2015-11-05T10:13:52.069Z,741.39
2015-11-05T10:14:05.319Z,741.39
2015-11-05T10:14:18.538Z,742.17
2015-11-05T10:14:31.741Z,741.82
2015-11-05T10:14:44.947Z,741.79
2015-11-05T10:14:58.166Z,741.88
2015-11-05T10:15:11.385Z,741.34
2015-11-05T10:15:24.593Z,741.26
2015-11-05T10:15:37.796Z,741.31
2015-11-05T10:15:51.032Z,741.25
2015-11-05T10:16:04.266Z,741.22
2015-11-05T10:16:17.360Z,741.29
2015-11-05T10:16:30.610Z,741.34
2015-11-05T10:16:43.801Z,741.34
2015-11-05T10:16:57.004Z,741.31
2015-11-05T10:17:10.223Z,741.27
2015-11-05T10:17:23.285Z,741.31
2015-11-05T10:17:36.332Z,741.3
2015-11-05T10:17:49.537Z,741.31
2015-11-05T10:18:02.756Z,741.31
2015-11-05T10:18:16.006Z,741.31
2015-11-05T10:18:29.256Z,741.31
2015-11-05T10:18:42.506Z,741.34
2015-11-05T10:18:55.728Z,741.32
2015-11-05T10:19:08.946Z,741.27
2015-11-05T10:19:22.212Z,741.34
2015-11-05T10:19:35.462Z,741.32
2015-11-05T10:19:48.684Z,741.3
2015-11-05T10:20:01.887Z,741.35
2015-11-05T10:20:14.949Z,741.3
2015-11-05T10:20:28.168Z,741.33
2015-11-05T10:20:41.402Z,741.3
2015-11-05T10:20:54.640Z,741.34
2015-11-05T10:21:07.859Z,741.35
2015-11-05T10:21:21.077Z,741.33
2015-11-05T10:21:34.312Z,741.35
2015-11-05T10:21:47.517Z,741.35
2015-11-05T10:22:00.736Z,741.36
2015-11-05T10:22:13.939Z,741.31
2015-11-05T10:22:27.173Z,741.34
2015-11-05T10:22:40.392Z,741.34
2015-11-05T10:22:53.598Z,741.34
2015-11-05T10:23:06.817Z,741.32
2015-11-05T10:23:20.035Z,741.34
2015-11-05T10:23:33.270Z,741.33
2015-11-05T10:23:46.489Z,741.32
2015-11-05T10:23:59.695Z,741.28
2015-11-05T10:24:12.913Z,741.3
2015-11-05T10:24:26.148Z,741.29
2015-11-05T10:24:39.367Z,741.31
2015-11-05T10:24:52.572Z,741.31
2015-11-05T10:25:05.790Z,741.31
2015-11-05T10:25:19.009Z,741.31
2015-11-05T10:25:32.259Z,741.31
2015-11-05T10:25:45.478Z,741.33
2015-11-05T10:25:58.716Z,741.32
2015-11-05T10:26:11.951Z,741.33
2015-11-05T10:26:25.201Z,741.31
2015-11-05T10:26:38.435Z,741.23
2015-11-05T10:26:51.671Z,741.29
2015-11-05T10:27:04.890Z,741.32
2015-11-05T10:27:18.140Z,741.29
2015-11-05T10:27:31.390Z,741.3
2015-11-05T10:27:44.609Z,741.27
2015-11-05T10:27:57.845Z,741.24
2015-11-05T10:28:11.127Z,741.27
2015-11-05T10:28:24.361Z,741.22
2015-11-05T10:28:37.580Z,741.27
2015-11-05T10:28:50.798Z,741.22
2015-11-05T10:29:04.037Z,741.3
2015-11-05T10:29:17.287Z,741.24
2015-11-05T10:29:30.521Z,741.26
2015-11-05T10:29:43.740Z,741.28
2015-11-05T10:29:56.886Z,741.3
2015-11-05T10:30:10.247Z,741.29
2015-11-05T10:30:23.575Z,741.26
2015-11-05T10:30:36.497Z,741.27
2015-11-05T10:30:49.434Z,741.27
2015-11-05T10:31:02.562Z,741.25
2015-11-05T10:31:15.812Z,741.25
2015-11-05T10:31:28.953Z,741.26
2015-11-05T10:31:42.172Z,741.24
2015-11-05T10:31:55.222Z,741.24
2015-11-05T10:32:08.430Z,741.22
2015-11-05T10:32:21.751Z,741.24
2015-11-05T10:32:36.186Z,741.22
2015-11-05T10:32:49.519Z,741.23
2015-11-05T10:33:05.381Z,741.24
2015-11-05T10:33:19.225Z,741.26
2015-11-05T10:33:32.459Z,741.23
2015-11-05T10:33:45.771Z,741.23
2015-11-05T10:33:59.040Z,741.26
2015-11-05T10:34:12.290Z,741.24
2015-11-05T10:34:25.415Z,741.2
2015-11-05T10:34:38.478Z,741.23
2015-11-05T10:34:51.696Z,741.24
2015-11-05T10:35:04.934Z,741.25
2015-11-05T10:35:18.199Z,741.31
2015-11-05T10:35:31.434Z,741.26
2015-11-05T10:35:44.652Z,741.22
2015-11-05T10:35:57.890Z,741.29
2015-11-05T10:36:11.155Z,741.29
2015-11-05T10:36:26.609Z,741.23
2015-11-05T10:36:40.577Z,741.28
2015-11-05T10:36:53.749Z,741.3
2015-11-05T10:37:06.970Z,741.22
2015-11-05T10:37:20.329Z,741.28
2015-11-05T10:37:33.642Z,741.29
2015-11-05T10:37:46.907Z,741.31
2015-11-05T10:38:00.707Z,741.3
2015-11-05T10:38:13.895Z,741.28
2015-11-05T10:38:27.457Z,741.29
2015-11-05T10:38:40.879Z,741.29
2015-11-05T10:38:54.973Z,741.32
2015-11-05T10:39:08.585Z,741.3
2015-11-05T10:39:21.820Z,741.28
2015-11-05T10:39:35.382Z,741.31
2015-11-05T10:39:48.460Z,741.27
2015-11-05T10:40:01.682Z,741.29
2015-11-05T10:40:14.979Z,741.31
2015-11-05T10:40:28.260Z,741.29
2015-11-05T10:40:41.541Z,741.3
2015-11-05T10:40:54.776Z,741.26
2015-11-05T10:41:07.840Z,741.25
2015-11-05T10:41:21.122Z,741.29
2015-11-05T10:41:34.372Z,741.29
2015-11-05T10:41:47.590Z,741.28
2015-11-05T10:42:00.859Z,741.26
2015-11-05T10:42:14.078Z,741.27
2015-11-05T10:42:27.343Z,741.32
2015-11-05T10:42:40.562Z,741.31
2015-11-05T10:42:53.828Z,741.29
2015-11-05T10:43:07.049Z,741.31
2015-11-05T10:43:20.284Z,741.28
2015-11-05T10:43:33.503Z,741.3
2015-11-05T10:43:46.753Z,741.29
2015-11-05T10:44:00.003Z,741.29
2015-11-05T10:44:13.223Z,741.3
2015-11-05T10:44:26.458Z,741.25
2015-11-05T10:44:39.676Z,741.28
2015-11-05T10:44:52.958Z,741.31
2015-11-05T10:45:06.179Z,741.3
2015-11-05T10:45:19.398Z,741.32
2015-11-05T10:45:32.633Z,741.32
2015-11-05T10:45:45.883Z,741.29
2015-11-05T10:45:59.164Z,741.31
2015-11-05T10:46:12.385Z,741.3
2015-11-05T10:46:25.619Z,741.29
2015-11-05T10:46:38.853Z,741.28
2015-11-05T10:46:52.088Z,741.3
2015-11-05T10:47:05.326Z,741.32
2015-11-05T10:47:18.560Z,741.23
2015-11-05T10:47:31.810Z,741.25
2015-11-05T10:47:45.060Z,741.24
2015-11-05T10:47:58.295Z,741.24
2015-11-05T10:48:11.516Z,741.25
2015-11-05T10:48:24.750Z,741.24
2015-11-05T10:48:38.000Z,741.27
2015-11-05T10:48:51.251Z,741.26
2015-11-05T10:49:04.470Z,741.22
2015-11-05T10:49:17.691Z,741.21
2015-11-05T10:49:30.973Z,741.19
2015-11-05T10:49:44.207Z,741.24
2015-11-05T10:49:57.426Z,741.23
2015-11-05T10:50:10.648Z,741.27
2015-11-05T10:50:23.929Z,741.27
2015-11-05T10:50:37.179Z,741.23
2015-11-05T10:50:50.413Z,741.24
2015-11-05T10:51:03.648Z,741.23
2015-11-05T10:51:16.869Z,741.27
2015-11-05T10:51:29.979Z,741.25
2015-11-05T10:51:43.229Z,741.21
2015-11-05T10:51:56.463Z,741.24
2015-11-05T10:52:09.699Z,741.24
2015-11-05T10:52:22.949Z,741.26
2015-11-05T10:52:36.199Z,741.21
2015-11-05T10:52:49.434Z,741.22
2015-11-05T10:53:02.653Z,741.21
2015-11-05T10:53:15.906Z,741.22
2015-11-05T10:53:29.124Z,741.23
2015-11-05T10:53:42.359Z,741.24
2015-11-05T10:53:55.593Z,741.21
2015-11-05T10:54:08.827Z,741.25
2015-11-05T10:54:22.079Z,741.23
2015-11-05T10:54:35.314Z,741.23
2015-11-05T10:54:48.548Z,741.23
2015-11-05T10:55:01.767Z,741.22
2015-11-05T10:55:15.021Z,741.23
2015-11-05T10:55:28.240Z,741.22
2015-11-05T10:55:41.474Z,741.22
2015-11-05T10:55:54.693Z,741.24
2015-11-05T10:56:07.958Z,741.21
2015-11-05T10:56:21.210Z,741.2
2015-11-05T10:56:34.429Z,741.23
2015-11-05T10:56:47.648Z,741.21
2015-11-05T10:57:00.898Z,741.21
2015-11-05T10:57:14.134Z,741.19
2015-11-05T10:57:27.369Z,741.21
2015-11-05T10:57:40.603Z,741.22
2015-11-05T10:57:53.869Z,741.19
2015-11-05T10:58:07.119Z,741.21
2015-11-05T10:58:20.372Z,741.21
2015-11-05T10:58:33.606Z,741.17
2015-11-05T10:58:46.840Z,741.2
2015-11-05T10:59:00.090Z,741.25
2015-11-05T10:59:13.325Z,741.21
2015-11-05T10:59:26.562Z,741.2
2015-11-05T10:59:39.812Z,741.24
2015-11-05T10:59:53.047Z,741.21
2015-11-05T11:00:06.312Z,741.2
2015-11-05T11:00:19.533Z,741.23
2015-11-05T11:00:32.767Z,741.18
2015-11-05T11:00:46.002Z,741.18
2015-11-05T11:00:59.252Z,741.2
2015-11-05T11:01:12.502Z,741.21
2015-11-05T11:01:25.740Z,741.17
2015-11-05T11:01:38.959Z,741.2
2015-11-05T11:01:52.209Z,741.19
2015-11-05T11:02:05.443Z,741.18
2015-11-05T11:02:18.665Z,741.22
2015-11-05T11:02:31.899Z,741.22
2015-11-05T11:02:45.134Z,741.18
2015-11-05T11:02:58.384Z,741.16
2015-11-05T11:03:11.634Z,741.17
2015-11-05T11:03:24.886Z,741.16
2015-11-05T11:03:38.104Z,741.16
2015-11-05T11:03:51.370Z,741.22
2015-11-05T11:04:04.604Z,741.21
2015-11-05T11:04:17.839Z,741.2
2015-11-05T11:04:31.045Z,741.17
2015-11-05T11:04:44.279Z,741.2
2015-11-05T11:04:57.529Z,741.19
2015-11-05T11:05:10.779Z,741.18
2015-11-05T11:05:24.017Z,741.21
2015-11-05T11:05:37.235Z,741.17
2015-11-05T11:05:50.485Z,741.19
2015-11-05T11:06:03.735Z,741.2
2015-11-05T11:06:16.970Z,741.17
2015-11-05T11:06:30.191Z,741.21
2015-11-05T11:06:43.441Z,741.18
2015-11-05T11:06:56.675Z,741.2
2015-11-05T11:07:09.894Z,741.17
2015-11-05T11:07:23.162Z,741.19
2015-11-05T11:07:36.412Z,741.2
2015-11-05T11:07:49.647Z,741.18
2015-11-05T11:08:02.897Z,741.19
2015-11-05T11:08:16.115Z,741.2
2015-11-05T11:08:29.337Z,741.16
2015-11-05T11:08:42.603Z,741.18
2015-11-05T11:08:55.822Z,741.17
2015-11-05T11:09:09.040Z,741.19
2015-11-05T11:09:22.275Z,741.18
2015-11-05T11:09:35.527Z,741.17
2015-11-05T11:09:48.761Z,741.21
2015-11-05T11:10:01.995Z,741.2
2015-11-05T11:10:15.214Z,741.17
2015-11-05T11:10:28.452Z,741.2
2015-11-05T11:10:41.702Z,741.16
2015-11-05T11:10:54.920Z,741.18
2015-11-05T11:11:08.186Z,741.15
2015-11-05T11:11:21.420Z,741.16
2015-11-05T11:11:34.673Z,741.12
2015-11-05T11:11:47.908Z,741.18
2015-11-05T11:12:00.970Z,741.15
2015-11-05T11:12:14.205Z,741.17
2015-11-05T11:12:27.442Z,741.18
2015-11-05T11:12:40.708Z,741.18
2015-11-05T11:12:53.942Z,741.16
2015-11-05T11:13:07.161Z,741.18
2015-11-05T11:13:20.395Z,741.16
2015-11-05T11:13:33.663Z,741.17
2015-11-05T11:13:46.881Z,741.16
2015-11-05T11:14:00.100Z,741.15
2015-11-05T11:14:13.335Z,741.13
2015-11-05T11:14:26.413Z,741.14
2015-11-05T11:14:39.650Z,741.16
2015-11-05T11:14:52.869Z,741.17
2015-11-05T11:15:06.072Z,741.11
2015-11-05T11:15:19.306Z,741.15
2015-11-05T11:15:32.559Z,741.16
2015-11-05T11:15:45.778Z,741.15
2015-11-05T11:15:59.012Z,741.12
2015-11-05T11:16:12.247Z,741.15
2015-11-05T11:16:25.512Z,741.11
2015-11-05T11:16:38.749Z,741.09
2015-11-05T11:16:51.811Z,741.12
2015-11-05T11:17:05.046Z,741.13
2015-11-05T11:17:18.311Z,741.17
2015-11-05T11:17:31.549Z,741.17
2015-11-05T11:17:44.752Z,741.15
2015-11-05T11:17:57.986Z,741.17
2015-11-05T11:18:11.252Z,741.1
2015-11-05T11:18:24.471Z,741.13
2015-11-05T11:18:37.708Z,741.16
2015-11-05T11:18:50.927Z,741.14
2015-11-05T11:19:04.177Z,741.1
2015-11-05T11:19:17.411Z,741.13
2015-11-05T11:19:30.661Z,741.14
2015-11-05T11:19:43.898Z,741.13
2015-11-05T11:19:57.148Z,741.14
2015-11-05T11:20:10.398Z,741.14
2015-11-05T11:20:23.633Z,741.09
2015-11-05T11:20:36.869Z,741.16
2015-11-05T11:20:50.119Z,741.17
2015-11-05T11:21:03.400Z,741.16
2015-11-05T11:21:16.650Z,741.14
2015-11-05T11:21:29.885Z,741.11
2015-11-05T11:21:43.107Z,741.15
2015-11-05T11:21:56.388Z,741.1
2015-11-05T11:22:09.638Z,741.14
2015-11-05T11:22:22.872Z,741.09
2015-11-05T11:22:36.110Z,741.11
2015-11-05T11:22:49.360Z,741.06
2015-11-05T11:23:02.594Z,741.09
2015-11-05T11:23:15.828Z,741.12
2015-11-05T11:23:29.063Z,741.12
2015-11-05T11:23:42.159Z,741.14
2015-11-05T11:23:55.409Z,741.11
2015-11-05T11:24:08.644Z,741.15
2015-11-05T11:24:21.878Z,741.12
2015-11-05T11:24:35.097Z,741.15
2015-11-05T11:24:48.350Z,741.13
2015-11-05T11:25:01.584Z,741.13
2015-11-05T11:25:14.819Z,741.14
2015-11-05T11:25:28.053Z,741.1
2015-11-05T11:25:41.289Z,741.1
2015-11-05T11:25:54.539Z,741.15
2015-11-05T11:26:07.774Z,741.13
2015-11-05T11:26:21.008Z,741.14
2015-11-05T11:26:34.243Z,741.12
2015-11-05T11:26:47.511Z,741.13
2015-11-05T11:27:00.730Z,741.12
2015-11-05T11:27:13.964Z,741.1
2015-11-05T11:27:27.199Z,741.12
2015-11-05T11:27:40.451Z,741.15
2015-11-05T11:27:53.701Z,741.11
2015-11-05T11:28:06.919Z,741.1
2015-11-05T11:28:20.138Z,741.09
2015-11-05T11:28:33.388Z,741.13
2015-11-05T11:28:46.626Z,741.08
2015-11-05T11:28:59.844Z,741.11
2015-11-05T11:29:13.094Z,741.12
2015-11-05T11:29:26.344Z,741.11
2015-11-05T11:29:39.597Z,741.09
2015-11-05T11:29:52.832Z,741.07
2015-11-05T11:30:06.050Z,741.08
2015-11-05T11:30:19.285Z,741.14
2015-11-05T11:30:32.550Z,741.12
2015-11-05T11:30:45.788Z,741.16
2015-11-05T11:30:59.022Z,741.14
2015-11-05T11:31:12.257Z,741.13
2015-11-05T11:31:25.507Z,741.1
2015-11-05T11:31:38.741Z,741.12
2015-11-05T11:31:51.978Z,741.12
2015-11-05T11:32:05.213Z,741.15
2015-11-05T11:32:18.447Z,741.13
2015-11-05T11:32:31.697Z,741.11
2015-11-05T11:32:44.933Z,741.08
2015-11-05T11:32:58.168Z,741.08
2015-11-05T11:33:11.387Z,741.07
2015-11-05T11:33:24.652Z,741.11
2015-11-05T11:33:37.887Z,741.07
2015-11-05T11:33:51.108Z,741.13
2015-11-05T11:34:04.374Z,741.12
2015-11-05T11:34:17.608Z,741.08
2015-11-05T11:34:30.858Z,741.1
2015-11-05T11:34:44.095Z,741.12
2015-11-05T11:34:57.313Z,741.08
2015-11-05T11:35:10.563Z,741.14
2015-11-05T11:35:23.813Z,741.1
2015-11-05T11:35:37.032Z,741.12
2015-11-05T11:35:50.270Z,741.15
2015-11-05T11:36:03.504Z,741.12
2015-11-05T11:36:16.754Z,741.11
2015-11-05T11:36:29.973Z,741.09
2015-11-05T11:36:43.194Z,741.07
2015-11-05T11:36:56.444Z,741.12
2015-11-05T11:37:09.694Z,741.13
2015-11-05T11:37:22.944Z,741.15
2015-11-05T11:37:36.382Z,741.15
2015-11-05T11:37:49.619Z,741.11
2015-11-05T11:38:02.916Z,741.14
2015-11-05T11:38:16.151Z,741.13
2015-11-05T11:38:29.385Z,741.13
2015-11-05T11:38:42.637Z,741.12
2015-11-05T11:39:13.153Z,741.1
2015-11-05T11:39:26.465Z,741.11
2015-11-05T11:39:39.699Z,741.09
2015-11-05T11:39:52.968Z,741.07
2015-11-05T11:40:06.046Z,741.09
2015-11-05T11:40:19.281Z,741.07
2015-11-05T11:40:32.515Z,741.1
2015-11-05T11:40:45.751Z,741.09
2015-11-05T11:40:58.986Z,741.12
2015-11-05T11:41:12.220Z,741.12
2015-11-05T11:41:25.439Z,741.13
2015-11-05T11:41:38.673Z,741.12
2015-11-05T11:41:51.942Z,741.11
2015-11-05T11:42:05.161Z,741.11
2015-11-05T11:42:18.395Z,741.11
2015-11-05T11:42:31.629Z,741.14
2015-11-05T11:42:44.867Z,741.12
2015-11-05T11:42:58.085Z,741.12
2015-11-05T11:43:11.320Z,741.09
2015-11-05T11:43:24.554Z,741.09
2015-11-05T11:43:37.820Z,741.14
2015-11-05T11:43:51.088Z,741.07
2015-11-05T11:44:04.307Z,741.12
2015-11-05T11:44:17.542Z,741.08
2015-11-05T11:44:30.792Z,741.07
2015-11-05T11:44:44.042Z,741.11
2015-11-05T11:44:57.278Z,741.07
2015-11-05T11:45:10.497Z,741.1
2015-11-05T11:45:23.747Z,741.07
2015-11-05T11:45:36.981Z,741.12
2015-11-05T11:45:50.218Z,741.09
2015-11-05T11:46:03.437Z,741.1
2015-11-05T11:46:16.687Z,741.07
2015-11-05T11:46:29.953Z,741.11
2015-11-05T11:46:43.015Z,741.06
2015-11-05T11:46:56.253Z,741.08
2015-11-05T11:47:09.487Z,741.12
2015-11-05T11:47:22.737Z,741.08
2015-11-05T11:47:35.971Z,741.08
2015-11-05T11:47:49.192Z,741.12
2015-11-05T11:48:02.427Z,741.09
2015-11-05T11:48:15.661Z,741.1
2015-11-05T11:48:28.895Z,741.09
2015-11-05T11:48:42.130Z,741.11
2015-11-05T11:48:55.352Z,741.1
2015-11-05T11:49:08.446Z,741.07
2015-11-05T11:49:21.696Z,741.08
2015-11-05T11:49:34.915Z,741.05
2015-11-05T11:49:48.149Z,741.1
2015-11-05T11:50:01.417Z,741.09
2015-11-05T11:50:14.651Z,741.1
2015-11-05T11:50:27.870Z,741.09
2015-11-05T11:50:41.104Z,741.1
2015-11-05T11:50:54.342Z,741.07
2015-11-05T11:51:07.607Z,741.06
2015-11-05T11:51:20.842Z,741.09
2015-11-05T11:51:34.061Z,741.09
2015-11-05T11:51:47.279Z,741.11
2015-11-05T11:52:00.516Z,741.08
2015-11-05T11:52:13.734Z,741.06
2015-11-05T11:52:26.969Z,741.11
2015-11-05T11:52:40.188Z,741.08
2015-11-05T11:52:53.426Z,741.09
2015-11-05T11:53:06.676Z,741.1
2015-11-05T11:53:19.910Z,741.09
2015-11-05T11:53:33.129Z,741.09
2015-11-05T11:53:46.223Z,741.1
2015-11-05T11:53:59.475Z,741.08
2015-11-05T11:54:12.740Z,741.08
2015-11-05T11:54:25.959Z,741.08
2015-11-05T11:54:39.178Z,741.07
2015-11-05T11:54:52.447Z,741.1
2015-11-05T11:55:05.697Z,741.07
2015-11-05T11:55:18.947Z,741.09
2015-11-05T11:55:32.165Z,741.08
2015-11-05T11:55:45.415Z,741.06
2015-11-05T11:55:58.652Z,741.06
2015-11-05T11:56:11.870Z,741.07
2015-11-05T11:56:25.105Z,741.08
2015-11-05T11:56:38.355Z,741.04
2015-11-05T11:56:51.605Z,741.09
2015-11-05T11:57:04.827Z,741.1
2015-11-05T11:57:18.077Z,741.1
2015-11-05T11:57:31.311Z,741.12
2015-11-05T11:57:44.577Z,741.08
2015-11-05T11:57:57.798Z,741.09
2015-11-05T11:58:11.033Z,741.08
2015-11-05T11:58:24.267Z,741.08
2015-11-05T11:58:37.517Z,741.03
2015-11-05T11:58:50.751Z,741.08
2015-11-05T11:59:03.972Z,741.09
2015-11-05T11:59:17.207Z,741.1
2015-11-05T11:59:30.441Z,741.09
2015-11-05T11:59:43.691Z,741.1
2015-11-05T11:59:56.913Z,741.09
2015-11-05T12:00:10.131Z,741.05
2015-11-05T12:00:23.381Z,741.1
2015-11-05T12:00:36.631Z,741.06
2015-11-05T12:00:49.866Z,741.05
2015-11-05T12:01:03.103Z,741.09
2015-11-05T12:01:16.322Z,741.1
2015-11-05T12:01:29.588Z,741.08
2015-11-05T12:01:42.822Z,741.07
2015-11-05T12:01:56.041Z,741.08
2015-11-05T12:02:09.294Z,741.11
2015-11-05T12:02:22.559Z,741.08
2015-11-05T12:02:35.794Z,741.13
2015-11-05T12:02:48.887Z,741.07
2015-11-05T12:03:02.125Z,741.05
2015-11-05T12:03:15.359Z,741.14
2015-11-05T12:03:28.609Z,741.08
2015-11-05T12:03:41.828Z,741.08
2015-11-05T12:03:55.062Z,741.06
2015-11-05T12:04:08.314Z,741.09
2015-11-05T12:04:21.564Z,741.09
2015-11-05T12:04:34.783Z,741.07
2015-11-05T12:04:48.017Z,741.08
2015-11-05T12:05:01.255Z,741.06
2015-11-05T12:05:14.505Z,741.07
2015-11-05T12:05:27.739Z,741.07
2015-11-05T12:05:40.958Z,741.05
2015-11-05T12:05:54.192Z,741.1
2015-11-05T12:06:07.444Z,741.06
2015-11-05T12:06:20.679Z,741.05
2015-11-05T12:06:33.913Z,741.05
2015-11-05T12:06:47.147Z,741.08
2015-11-05T12:07:00.397Z,741.09
2015-11-05T12:07:13.650Z,741.07
2015-11-05T12:07:26.885Z,741.07
2015-11-05T12:07:40.119Z,741.07
2015-11-05T12:07:53.369Z,741.09
2015-11-05T12:08:06.622Z,741.09
2015-11-05T12:08:19.841Z,741.1
2015-11-05T12:08:33.075Z,741.12
2015-11-05T12:08:46.310Z,741.07
2015-11-05T12:08:59.560Z,741.09
2015-11-05T12:09:12.797Z,741.14
2015-11-05T12:09:26.031Z,741.11
2015-11-05T12:09:39.266Z,741.05
2015-11-05T12:09:52.516Z,741.11
2015-11-05T12:10:05.752Z,741.13
2015-11-05T12:10:18.987Z,741.11
2015-11-05T12:10:32.237Z,741.08
2015-11-05T12:10:45.471Z,741.12
2015-11-05T12:10:58.737Z,741.06
2015-11-05T12:11:11.958Z,741.12
2015-11-05T12:11:25.193Z,741.11
2015-11-05T12:11:38.411Z,741.11
2015-11-05T12:11:51.677Z,741.08
2015-11-05T12:12:04.911Z,741.1
2015-11-05T12:12:18.133Z,741.14
2015-11-05T12:12:31.461Z,741.11
2015-11-05T12:12:44.711Z,741.12
2015-11-05T12:12:57.946Z,741.16
2015-11-05T12:13:11.166Z,741.13
2015-11-05T12:13:24.401Z,741.11
2015-11-05T12:13:37.666Z,741.11
2015-11-05T12:13:50.916Z,741.12
2015-11-05T12:14:04.151Z,741.1
2015-11-05T12:14:17.373Z,741.1
2015-11-05T12:14:30.607Z,741.12
2015-11-05T12:14:43.841Z,741.15
2015-11-05T12:14:57.076Z,741.13
2015-11-05T12:15:10.314Z,741.13
2015-11-05T12:15:23.564Z,741.13
2015-11-05T12:15:36.814Z,741.12
2015-11-05T12:15:50.033Z,741.13
2015-11-05T12:16:03.267Z,741.11
2015-11-05T12:16:16.504Z,741.14
2015-11-05T12:16:29.738Z,741.14
2015-11-05T12:16:42.988Z,741.1
2015-11-05T12:16:56.207Z,741.1
2015-11-05T12:17:09.441Z,741.12
2015-11-05T12:17:22.694Z,741.12
2015-11-05T12:17:35.772Z,741.12
2015-11-05T12:17:49.007Z,741.1
2015-11-05T12:18:02.241Z,741.13
2015-11-05T12:18:15.477Z,741.11
2015-11-05T12:18:28.727Z,741.08
2015-11-05T12:18:41.962Z,741.1
2015-11-05T12:18:55.180Z,741.1
2015-11-05T12:19:08.430Z,741.13
2015-11-05T12:19:21.683Z,741.13
2015-11-05T12:19:34.918Z,741.13
2015-11-05T12:19:48.137Z,741.16
2015-11-05T12:20:01.371Z,741.13
2015-11-05T12:20:14.624Z,741.14
2015-11-05T12:20:27.858Z,741.13
2015-11-05T12:20:41.093Z,741.09
2015-11-05T12:20:54.311Z,741.13
2015-11-05T12:21:07.561Z,741.1
2015-11-05T12:21:20.814Z,741.1
2015-11-05T12:21:34.033Z,741.12
2015-11-05T12:21:47.268Z,741.11
2015-11-05T12:22:00.502Z,741.13
2015-11-05T12:22:13.752Z,741.11
2015-11-05T12:22:26.989Z,741.09
2015-11-05T12:22:40.239Z,741.1
2015-11-05T12:22:53.474Z,741.11
2015-11-05T12:23:06.739Z,741.12
2015-11-05T12:23:19.976Z,741.13
2015-11-05T12:23:33.210Z,741.13
2015-11-05T12:23:46.460Z,741.09
2015-11-05T12:23:59.710Z,741.1
2015-11-05T12:24:12.960Z,741.09
2015-11-05T12:24:26.181Z,741.09
2015-11-05T12:24:39.415Z,741.1
2015-11-05T12:24:52.650Z,741.09
2015-11-05T12:25:05.900Z,741.1
2015-11-05T12:25:19.122Z,741.11
2015-11-05T12:25:32.357Z,741.1
2015-11-05T12:25:45.591Z,741.1
2015-11-05T12:25:58.841Z,741.12
2015-11-05T12:26:12.075Z,741.12
2015-11-05T12:26:25.296Z,741.1
2015-11-05T12:26:38.562Z,741.08
2015-11-05T12:26:51.827Z,741.1
2015-11-05T12:27:05.062Z,741.12
2015-11-05T12:27:18.296Z,741.1
2015-11-05T12:27:31.518Z,741.14
2015-11-05T12:27:44.768Z,741.09
2015-11-05T12:27:57.987Z,741.14
2015-11-05T12:28:11.221Z,741.1
2015-11-05T12:28:24.458Z,741.15
2015-11-05T12:28:37.677Z,741.11
2015-11-05T12:28:50.912Z,741.11
2015-11-05T12:29:04.146Z,741.11
2015-11-05T12:29:17.349Z,741.1
2015-11-05T12:29:30.586Z,741.12
2015-11-05T12:29:43.821Z,741.15
2015-11-05T12:29:57.055Z,741.09
2015-11-05T12:30:10.305Z,741.13
2015-11-05T12:30:23.542Z,741.12
2015-11-05T12:30:36.792Z,741.11
2015-11-05T12:30:50.042Z,741.14
2015-11-05T12:31:03.260Z,741.16
2015-11-05T12:31:16.495Z,741.14
2015-11-05T12:31:29.763Z,741.14
2015-11-05T12:31:42.998Z,741.16
2015-11-05T12:31:56.216Z,741.14
2015-11-05T12:32:09.451Z,741.12
2015-11-05T12:32:22.701Z,741.12
2015-11-05T12:32:35.937Z,741.11
2015-11-05T12:32:49.172Z,741.12
2015-11-05T12:33:02.390Z,741.15
2015-11-05T12:33:15.625Z,741.11
2015-11-05T12:33:28.878Z,741.12
2015-11-05T12:33:42.096Z,741.12
2015-11-05T12:33:55.331Z,741.12
2015-11-05T12:34:08.550Z,741.1
2015-11-05T12:34:21.800Z,741.12
2015-11-05T12:34:35.037Z,741.11
2015-11-05T12:34:48.271Z,741.1
2015-11-05T12:35:01.506Z,741.07
2015-11-05T12:35:14.740Z,741.12
2015-11-05T12:35:27.993Z,741.1
2015-11-05T12:35:41.212Z,741.11
2015-11-05T12:35:54.446Z,741.11
2015-11-05T12:36:07.681Z,741.09
2015-11-05T12:36:20.931Z,741.09
2015-11-05T12:36:34.167Z,741.09
2015-11-05T12:36:47.417Z,741.11
2015-11-05T12:37:00.667Z,741.07
2015-11-05T12:37:13.933Z,741.1
2015-11-05T12:37:27.151Z,741.11
2015-11-05T12:37:40.404Z,741.09
2015-11-05T12:37:53.623Z,741.11
2015-11-05T12:38:06.873Z,741.12
2015-11-05T12:38:20.139Z,741.08
2015-11-05T12:38:33.360Z,741.09
2015-11-05T12:38:46.439Z,741.11
2015-11-05T12:38:59.689Z,741.09
2015-11-05T12:39:12.907Z,741.14
2015-11-05T12:39:26.142Z,741.11
2015-11-05T12:39:39.363Z,741.13
2015-11-05T12:39:52.598Z,741.1
2015-11-05T12:40:05.863Z,741.12
2015-11-05T12:40:19.082Z,741.13
2015-11-05T12:40:32.303Z,741.13
2015-11-05T12:40:45.537Z,741.11
2015-11-05T12:40:58.803Z,741.16
2015-11-05T12:41:12.022Z,741.15
2015-11-05T12:41:25.256Z,741.12
2015-11-05T12:41:38.493Z,741.12
2015-11-05T12:41:51.728Z,741.1
2015-11-05T12:42:04.993Z,741.13
2015-11-05T12:42:18.228Z,741.12
2015-11-05T12:42:31.462Z,741.11
2015-11-05T12:42:44.714Z,741.13
2015-11-05T12:42:57.949Z,741.15
2015-11-05T12:43:11.167Z,741.12
2015-11-05T12:43:24.402Z,741.15
2015-11-05T12:43:37.639Z,741.15
2015-11-05T12:43:50.889Z,741.15
2015-11-05T12:44:04.123Z,741.13
2015-11-05T12:44:17.358Z,741.13
2015-11-05T12:44:30.592Z,741.18
2015-11-05T12:44:43.830Z,741.13
2015-11-05T12:44:57.080Z,741.16
2015-11-05T12:45:10.298Z,741.12
2015-11-05T12:45:23.408Z,741.14
2015-11-05T12:45:36.645Z,741.16
2015-11-05T12:45:49.911Z,741.11
2015-11-05T12:46:03.145Z,741.13
2015-11-05T12:46:16.379Z,741.16
2015-11-05T12:46:29.614Z,741.13
2015-11-05T12:46:42.881Z,741.17
2015-11-05T12:46:56.100Z,741.15
2015-11-05T12:47:09.335Z,741.13